createdAt,value
2023-05-20T00:01:50.511Z,5.22
2023-05-20T00:04:18.267Z,5.47
2023-05-20T00:06:45.625Z,4.75
2023-05-20T00:09:12.885Z,5.40
2023-05-20T00:11:40.420Z,4.78
2023-05-20T00:14:07.542Z,6.22
2023-05-20T00:16:34.718Z,5.40
2023-05-20T00:19:02.245Z,5.30
2023-05-20T00:21:29.744Z,5.60
2023-05-20T00:23:56.899Z,5.40
2023-05-20T00:26:24.378Z,5.10
2023-05-20T00:28:52.543Z,5.53
2023-05-20T00:31:19.678Z,5.75
2023-05-20T00:33:47.227Z,5.00
2023-05-20T00:36:14.443Z,5.68
2023-05-20T00:38:41.602Z,5.75
2023-05-20T00:41:09.007Z,5.85
2023-05-20T00:43:36.158Z,5.78
2023-05-20T00:46:03.495Z,6.50
2023-05-20T00:48:36.679Z,6.37
2023-05-20T00:51:05.080Z,6.53
2023-05-20T00:53:32.677Z,6.65
2023-05-20T00:55:59.874Z,6.68
2023-05-20T00:58:27.444Z,7.37
2023-05-20T01:00:55.468Z,6.70
2023-05-20T01:03:23.056Z,6.97
2023-05-20T01:05:50.603Z,6.78
2023-05-20T01:08:19.065Z,7.37
2023-05-20T01:10:47.926Z,6.90
2023-05-20T01:13:18.985Z,6.55
2023-05-20T01:15:48.461Z,6.78
2023-05-20T01:18:20.482Z,7.15
2023-05-20T01:20:50.050Z,6.57
2023-05-20T01:23:17.307Z,6.82
2023-05-20T01:25:44.521Z,6.55
2023-05-20T01:28:17.919Z,6.25
2023-05-20T01:30:51.185Z,6.80
2023-05-20T01:33:20.954Z,7.10
2023-05-20T01:35:48.116Z,6.37
2023-05-20T01:38:19.126Z,7.10
2023-05-20T01:40:47.380Z,6.35
2023-05-20T01:43:17.378Z,6.40
2023-05-20T01:45:45.211Z,6.87
2023-05-20T01:48:12.697Z,6.40
2023-05-20T01:50:41.346Z,6.60
2023-05-20T01:53:09.619Z,6.10
2023-05-20T01:55:37.171Z,6.95
2023-05-20T01:58:05.235Z,6.53
2023-05-20T02:00:34.052Z,6.60
2023-05-20T02:03:03.584Z,7.00
2023-05-20T02:05:30.943Z,8.25
2023-05-20T02:07:58.670Z,6.93
2023-05-20T02:10:26.042Z,6.12
2023-05-20T02:12:53.201Z,6.78
2023-05-20T02:15:20.748Z,6.28
2023-05-20T02:17:48.214Z,5.90
2023-05-20T02:20:16.317Z,6.65
2023-05-20T02:22:43.767Z,6.90
2023-05-20T02:25:11.295Z,5.93
2023-05-20T02:27:39.855Z,6.65
2023-05-20T02:30:08.391Z,6.55
2023-05-20T02:32:35.852Z,6.10
2023-05-20T02:35:02.995Z,6.68
2023-05-20T02:37:31.677Z,6.90
2023-05-20T02:39:58.866Z,7.93
2023-05-20T02:42:25.992Z,7.65
2023-05-20T02:44:56.596Z,6.40
2023-05-20T02:47:25.120Z,7.00
2023-05-20T02:49:52.354Z,7.37
2023-05-20T02:52:20.387Z,6.93
2023-05-20T02:54:47.510Z,7.53
2023-05-20T02:57:14.666Z,6.43
2023-05-20T02:59:42.300Z,6.25
2023-05-20T03:02:09.449Z,9.00
2023-05-20T03:04:38.927Z,7.35
2023-05-20T03:07:09.293Z,6.93
2023-05-20T03:09:36.698Z,6.12
2023-05-20T03:12:05.158Z,7.03
2023-05-20T03:14:32.627Z,6.85
2023-05-20T03:17:00.171Z,6.85
2023-05-20T03:19:27.387Z,6.43
2023-05-20T03:21:54.885Z,6.80
2023-05-20T03:24:23.465Z,6.30
2023-05-20T03:26:50.698Z,6.00
2023-05-20T03:29:18.258Z,7.35
2023-05-20T03:31:45.813Z,7.10
2023-05-20T03:34:13.289Z,6.65
2023-05-20T03:36:41.404Z,7.25
2023-05-20T03:39:08.590Z,6.30
2023-05-20T03:41:35.867Z,7.30
2023-05-20T03:44:03.566Z,7.90
2023-05-20T03:46:32.587Z,6.70
2023-05-20T03:49:02.026Z,6.18
2023-05-20T03:51:31.288Z,6.10
2023-05-20T03:54:02.139Z,6.25
2023-05-20T03:56:29.615Z,6.47
2023-05-20T03:58:57.001Z,6.30
2023-05-20T04:01:25.800Z,7.35
2023-05-20T04:03:53.351Z,6.78
2023-05-20T04:06:22.536Z,7.43
2023-05-20T04:08:50.664Z,7.20
2023-05-20T04:11:21.497Z,6.53
2023-05-20T04:13:48.825Z,6.62
2023-05-20T04:16:16.709Z,6.30
2023-05-20T04:18:46.067Z,6.30
2023-05-20T04:21:13.857Z,6.53
2023-05-20T04:23:41.450Z,6.75
2023-05-20T04:26:08.964Z,6.97
2023-05-20T04:28:37.744Z,6.95
2023-05-20T04:31:05.005Z,6.28
2023-05-20T04:33:33.098Z,6.95
2023-05-20T04:36:01.048Z,6.15
2023-05-20T04:38:30.149Z,5.68
2023-05-20T04:40:58.279Z,6.35
2023-05-20T04:43:26.393Z,6.03
2023-05-20T04:45:53.935Z,5.95
2023-05-20T04:48:22.283Z,5.78
2023-05-20T04:50:50.119Z,6.20
2023-05-20T04:53:17.557Z,6.05
2023-05-20T04:55:49.663Z,6.03
2023-05-20T04:58:17.797Z,5.72
2023-05-20T05:00:45.602Z,5.87
2023-05-20T05:03:13.184Z,6.10
2023-05-20T05:05:40.995Z,6.30
2023-05-20T05:08:09.743Z,5.87
2023-05-20T05:10:38.435Z,5.68
2023-05-20T05:13:05.594Z,10.35
2023-05-20T05:15:33.380Z,6.30
2023-05-20T05:18:01.974Z,5.12
2023-05-20T05:20:30.038Z,5.12
2023-05-20T05:22:57.474Z,5.65
2023-05-20T05:25:24.675Z,5.53
2023-05-20T05:27:51.829Z,5.40
2023-05-20T05:30:22.060Z,5.05
2023-05-20T05:32:49.842Z,5.78
2023-05-20T05:35:17.578Z,4.68
2023-05-20T05:37:45.000Z,4.53
2023-05-20T05:40:12.752Z,5.20
2023-05-20T05:42:40.508Z,4.57
2023-05-20T05:45:08.921Z,5.00
2023-05-20T05:47:36.460Z,5.10
2023-05-20T05:50:03.855Z,5.75
2023-05-20T05:52:31.778Z,4.90
2023-05-20T05:55:01.504Z,4.72
2023-05-20T05:57:28.841Z,4.97
2023-05-20T05:59:56.339Z,5.05
2023-05-20T06:02:24.894Z,5.22
2023-05-20T06:04:52.508Z,6.82
2023-05-20T06:07:19.944Z,12.70
2023-05-20T06:09:47.176Z,5.05
2023-05-20T06:12:14.839Z,4.62
2023-05-20T06:14:41.998Z,5.40
2023-05-20T06:17:09.472Z,7.68
2023-05-20T06:19:37.202Z,7.28
2023-05-20T06:22:04.593Z,5.57
2023-05-20T06:24:33.008Z,4.37
2023-05-20T06:27:01.558Z,5.45
2023-05-20T06:29:29.228Z,4.82
2023-05-20T06:31:56.705Z,4.75
2023-05-20T06:34:24.314Z,5.43
2023-05-20T06:36:51.487Z,5.20
2023-05-20T06:39:18.628Z,6.95
2023-05-20T06:41:46.311Z,5.43
2023-05-20T06:44:19.381Z,5.60
2023-05-20T06:46:49.889Z,4.57
2023-05-20T06:49:17.074Z,4.85
2023-05-20T06:51:44.306Z,5.22
2023-05-20T06:54:11.832Z,5.85
2023-05-20T06:56:38.950Z,5.37
2023-05-20T06:59:06.216Z,5.12
2023-05-20T07:01:34.054Z,4.68
2023-05-20T07:04:01.815Z,7.40
2023-05-20T07:06:31.477Z,5.10
2023-05-20T07:08:59.141Z,5.25
2023-05-20T07:11:26.770Z,5.03
2023-05-20T07:13:54.900Z,5.15
2023-05-20T07:16:23.416Z,5.60
2023-05-20T07:18:50.966Z,5.60
2023-05-20T07:21:18.564Z,5.87
2023-05-20T07:23:46.469Z,5.35
2023-05-20T07:26:13.579Z,5.40
2023-05-20T07:28:40.798Z,5.53
2023-05-20T07:31:08.537Z,5.93
2023-05-20T07:33:35.918Z,4.82
2023-05-20T07:36:03.991Z,5.15
2023-05-20T07:38:32.445Z,5.85
2023-05-20T07:40:59.829Z,5.37
2023-05-20T07:43:27.511Z,5.82
2023-05-20T07:45:55.032Z,5.10
2023-05-20T07:48:22.756Z,5.43
2023-05-20T07:50:49.923Z,5.50
2023-05-20T07:53:17.710Z,4.95
2023-05-20T07:55:45.066Z,5.37
2023-05-20T07:58:12.249Z,5.43
2023-05-20T08:00:39.747Z,5.22
2023-05-20T08:03:08.335Z,9.73
2023-05-20T08:05:39.268Z,7.37
2023-05-20T08:08:06.782Z,5.18
2023-05-20T08:10:35.410Z,5.47
2023-05-20T08:13:03.061Z,5.22
2023-05-20T08:15:32.208Z,5.40
2023-05-20T08:17:59.592Z,6.65
2023-05-20T08:20:26.873Z,5.70
2023-05-20T08:22:54.524Z,5.82
2023-05-20T08:25:23.668Z,5.90
2023-05-20T08:27:51.593Z,6.72
2023-05-20T08:30:19.724Z,6.07
2023-05-20T08:32:48.865Z,5.93
2023-05-20T08:35:16.064Z,5.80
2023-05-20T08:37:43.591Z,5.85
2023-05-20T08:40:11.861Z,5.95
2023-05-20T08:42:43.687Z,4.68
2023-05-20T08:45:15.726Z,5.82
2023-05-20T08:47:43.656Z,6.78
2023-05-20T08:50:12.274Z,6.65
2023-05-20T08:52:46.713Z,5.90
2023-05-20T08:55:16.698Z,6.00
2023-05-20T08:57:45.924Z,5.75
2023-05-20T09:00:16.213Z,5.32
2023-05-20T09:02:45.316Z,5.20
2023-05-20T09:05:12.554Z,5.22
2023-05-20T09:07:40.198Z,5.85
2023-05-20T09:10:07.659Z,8.30
2023-05-20T09:12:35.193Z,5.05
2023-05-20T09:15:02.604Z,5.75
2023-05-20T09:17:29.763Z,5.78
2023-05-20T09:19:57.067Z,5.35
2023-05-20T09:22:26.115Z,5.45
2023-05-20T09:24:53.917Z,5.82
2023-05-20T09:27:21.875Z,6.15
2023-05-20T09:29:49.311Z,6.10
2023-05-20T09:32:16.682Z,5.78
2023-05-20T09:34:45.476Z,6.18
2023-05-20T09:37:14.499Z,5.82
2023-05-20T09:39:58.157Z,5.62
2023-05-20T09:44:58.073Z,6.05
2023-05-20T09:47:26.522Z,6.65
2023-05-20T09:49:53.966Z,6.65
2023-05-20T09:52:21.597Z,6.10
2023-05-20T09:54:49.801Z,5.85
2023-05-20T09:57:17.245Z,5.97
2023-05-20T09:59:44.368Z,5.70
2023-05-20T10:02:11.877Z,6.12
2023-05-20T10:04:43.649Z,5.78
2023-05-20T10:07:47.652Z,5.55
2023-05-20T10:10:25.325Z,5.62
2023-05-20T10:13:11.376Z,5.90
2023-05-20T10:15:53.887Z,5.65
2023-05-20T10:18:23.898Z,5.82
2023-05-20T10:20:51.768Z,5.85
2023-05-20T10:23:23.155Z,5.68
2023-05-20T10:25:55.106Z,5.97
2023-05-20T10:28:41.775Z,8.45
2023-05-20T10:31:21.469Z,7.00
2023-05-20T10:33:49.357Z,5.62
2023-05-20T10:36:27.686Z,6.47
2023-05-20T10:38:59.335Z,6.37
2023-05-20T10:41:30.566Z,6.20
2023-05-20T10:44:05.913Z,8.77
2023-05-20T10:46:46.403Z,5.25
2023-05-20T10:49:25.150Z,5.37
2023-05-20T10:51:54.464Z,6.07
2023-05-20T10:54:22.324Z,5.62
2023-05-20T10:56:53.755Z,6.07
2023-05-20T10:59:21.907Z,5.75
2023-05-20T11:01:49.553Z,5.95
2023-05-20T11:04:17.550Z,5.00
2023-05-20T11:06:53.845Z,5.00
2023-05-20T11:09:22.141Z,6.53
2023-05-20T11:11:51.146Z,7.32
2023-05-20T11:14:20.093Z,6.20
2023-05-20T11:16:56.233Z,5.78
2023-05-20T11:19:23.693Z,5.65
2023-05-20T11:21:51.519Z,9.40
2023-05-20T11:24:28.507Z,5.45
2023-05-20T11:26:57.392Z,45.97
2023-05-20T11:29:26.411Z,5.75
2023-05-20T11:31:53.739Z,5.80
2023-05-20T11:34:26.865Z,5.53
2023-05-20T11:39:29.997Z,5.30
2023-05-20T11:41:58.089Z,6.22
2023-05-20T11:44:26.278Z,6.12
2023-05-20T11:47:00.498Z,6.12
2023-05-20T11:49:28.610Z,6.43
2023-05-20T11:51:56.707Z,6.10
2023-05-20T11:54:24.662Z,9.48
2023-05-20T11:56:54.410Z,5.80
2023-05-20T11:59:24.097Z,5.37
2023-05-20T12:01:51.544Z,6.07
2023-05-20T12:04:19.231Z,6.32
2023-05-20T12:06:46.847Z,6.05
2023-05-20T12:09:14.457Z,9.70
2023-05-20T12:11:42.315Z,6.85
2023-05-20T12:14:09.660Z,5.15
2023-05-20T12:16:37.956Z,6.22
2023-05-20T12:19:05.792Z,5.87
2023-05-20T12:21:33.029Z,5.68
2023-05-20T12:24:01.099Z,5.72
2023-05-20T12:26:30.044Z,5.80
2023-05-20T12:28:57.704Z,6.35
2023-05-20T12:31:25.666Z,5.93
2023-05-20T12:33:53.193Z,7.75
2023-05-20T12:36:20.449Z,5.30
2023-05-20T12:38:47.574Z,6.12
2023-05-20T12:41:15.040Z,5.97
2023-05-20T12:43:42.133Z,5.78
2023-05-20T12:46:09.290Z,5.47
2023-05-20T12:48:37.075Z,6.37
2023-05-20T12:51:04.659Z,6.65
2023-05-20T12:53:31.804Z,6.07
2023-05-20T12:55:59.314Z,5.72
2023-05-20T12:58:26.403Z,5.53
2023-05-20T13:00:53.617Z,5.87
2023-05-20T13:03:21.225Z,6.22
2023-05-20T13:05:48.434Z,5.70
2023-05-20T13:08:15.612Z,6.55
2023-05-20T13:10:43.041Z,6.05
2023-05-20T13:13:10.172Z,6.28
2023-05-20T13:15:37.309Z,5.37
2023-05-20T13:18:06.785Z,5.60
2023-05-20T13:20:34.875Z,7.00
2023-05-20T13:23:02.344Z,6.12
2023-05-20T13:25:29.818Z,6.18
2023-05-20T13:27:56.954Z,6.45
2023-05-20T13:30:24.063Z,5.95
2023-05-20T13:32:51.780Z,6.35
2023-05-20T13:35:19.032Z,6.12
2023-05-20T13:37:46.228Z,6.20
2023-05-20T13:40:13.700Z,6.53
2023-05-20T13:42:40.941Z,6.22
2023-05-20T13:45:08.368Z,7.28
2023-05-20T13:47:36.287Z,5.93
2023-05-20T13:50:03.964Z,6.37
2023-05-20T13:52:31.208Z,6.03
2023-05-20T13:54:58.599Z,6.68
2023-05-20T13:57:25.782Z,6.45
2023-05-20T13:59:53.049Z,6.40
2023-05-20T14:02:20.643Z,7.00
2023-05-20T14:04:48.192Z,6.68
2023-05-20T14:07:15.359Z,6.50
2023-05-20T14:09:42.609Z,5.90
2023-05-20T14:12:10.057Z,6.12
2023-05-20T14:14:37.265Z,6.15
2023-05-20T14:17:04.639Z,6.93
2023-05-20T14:19:32.278Z,7.00
2023-05-20T14:22:01.188Z,6.43
2023-05-20T14:24:28.459Z,6.50
2023-05-20T14:26:56.260Z,6.78
2023-05-20T14:29:23.371Z,6.12
2023-05-20T14:31:50.623Z,7.12
2023-05-20T14:34:18.168Z,6.75
2023-05-20T14:36:45.358Z,6.43
2023-05-20T14:39:12.519Z,6.32
2023-05-20T14:41:40.010Z,6.55
2023-05-20T14:44:07.123Z,7.22
2023-05-20T14:46:34.408Z,6.55
2023-05-20T14:49:02.110Z,6.43
2023-05-20T14:51:29.254Z,7.00
2023-05-20T14:53:56.395Z,6.78
2023-05-20T14:56:24.075Z,6.28
2023-05-20T14:58:51.164Z,6.20
2023-05-20T15:01:18.543Z,6.20
2023-05-20T15:03:46.095Z,6.40
2023-05-20T15:06:13.293Z,6.43
2023-05-20T15:08:41.572Z,6.05
2023-05-20T15:11:08.962Z,6.20
2023-05-20T15:13:36.842Z,5.80
2023-05-20T15:16:05.209Z,6.15
2023-05-20T15:18:32.610Z,5.75
2023-05-20T15:21:00.751Z,5.80
2023-05-20T15:23:27.864Z,6.57
2023-05-20T15:25:55.473Z,6.05
2023-05-20T15:28:22.610Z,5.95
2023-05-20T15:30:53.317Z,6.72
2023-05-20T15:33:21.543Z,7.62
2023-05-20T15:35:49.094Z,5.90
2023-05-20T15:38:16.418Z,6.35
2023-05-20T15:40:44.017Z,5.65
2023-05-20T15:43:11.261Z,5.93
2023-05-20T15:45:38.467Z,6.40
2023-05-20T15:48:06.131Z,7.00
2023-05-20T15:50:33.587Z,6.85
2023-05-20T15:53:01.182Z,7.03
2023-05-20T15:55:28.739Z,6.53
2023-05-20T15:57:55.949Z,6.65
2023-05-20T16:00:23.420Z,6.37
2023-05-20T16:02:51.166Z,6.57
2023-05-20T16:05:18.680Z,6.72
2023-05-20T16:07:46.827Z,6.85
2023-05-20T16:10:14.334Z,6.68
2023-05-20T16:12:41.534Z,6.90
2023-05-20T16:15:10.101Z,6.68
2023-05-20T16:17:37.976Z,7.62
2023-05-20T16:20:07.051Z,7.60
2023-05-20T16:22:35.191Z,6.97
2023-05-20T16:25:03.444Z,6.75
2023-05-20T16:27:32.070Z,6.30
2023-05-20T16:29:59.344Z,7.05
2023-05-20T16:32:27.139Z,7.57
2023-05-20T16:34:54.838Z,6.35
2023-05-20T16:37:22.079Z,7.28
2023-05-20T16:39:49.652Z,6.47
2023-05-20T16:42:16.835Z,7.35
2023-05-20T16:44:44.022Z,6.85
2023-05-20T16:47:11.544Z,6.28
2023-05-20T16:49:38.725Z,7.10
2023-05-20T16:52:06.488Z,7.57
2023-05-20T16:54:36.201Z,6.43
2023-05-20T16:57:04.288Z,7.15
2023-05-20T16:59:35.051Z,6.90
2023-05-20T17:02:02.517Z,7.18
2023-05-20T17:04:29.733Z,7.32
2023-05-20T17:06:57.059Z,6.43
2023-05-20T17:09:24.567Z,6.53
2023-05-20T17:11:52.942Z,7.40
2023-05-20T17:14:20.104Z,6.32
2023-05-20T17:16:47.676Z,6.53
2023-05-20T17:19:15.062Z,6.53
2023-05-20T17:21:42.373Z,6.22
2023-05-20T17:24:09.836Z,6.10
2023-05-20T17:26:37.736Z,5.35
2023-05-20T17:29:04.927Z,6.25
2023-05-20T17:31:32.476Z,6.07
2023-05-20T17:33:59.806Z,6.15
2023-05-20T17:36:27.127Z,6.00
2023-05-20T17:38:54.693Z,6.03
2023-05-20T17:41:21.987Z,5.43
2023-05-20T17:43:49.176Z,6.97
2023-05-20T17:46:16.815Z,5.55
2023-05-20T17:48:44.851Z,6.00
2023-05-20T17:51:12.170Z,5.87
2023-05-20T17:53:39.657Z,7.47
2023-05-20T17:56:07.079Z,6.62
2023-05-20T17:58:34.270Z,6.40
2023-05-20T18:01:02.281Z,6.20
2023-05-20T18:03:29.734Z,6.68
2023-05-20T18:05:56.985Z,6.37
2023-05-20T18:08:25.475Z,6.75
2023-05-20T18:10:52.948Z,6.53
2023-05-20T18:13:20.063Z,6.25
2023-05-20T18:15:48.123Z,6.18
2023-05-20T18:18:15.754Z,6.80
2023-05-20T18:20:42.945Z,5.87
2023-05-20T18:23:10.125Z,6.22
2023-05-20T18:25:37.573Z,7.20
2023-05-20T18:28:04.953Z,22.60
2023-05-20T18:30:32.072Z,9.65
2023-05-20T18:32:59.530Z,6.80
2023-05-20T18:35:26.666Z,15.52
2023-05-20T18:37:53.874Z,15.50
2023-05-20T18:40:21.602Z,21.75
2023-05-20T18:42:48.724Z,27.87
2023-05-20T18:45:16.071Z,24.58
2023-05-20T18:47:43.539Z,22.48
2023-05-20T18:50:11.489Z,23.92
2023-05-20T18:52:38.644Z,51.83
2023-05-20T18:55:06.887Z,24.63
2023-05-20T18:57:33.996Z,20.75
2023-05-20T19:00:02.507Z,22.25
2023-05-20T19:02:30.042Z,14.38
2023-05-20T19:04:57.207Z,10.00
2023-05-20T19:07:24.354Z,7.05
2023-05-20T19:09:52.071Z,6.47
2023-05-20T19:12:19.188Z,7.93
2023-05-20T19:14:51.238Z,7.25
2023-05-20T19:17:20.932Z,7.95
2023-05-20T19:19:48.574Z,7.07
2023-05-20T19:22:15.769Z,7.20
2023-05-20T19:24:43.167Z,14.32
2023-05-20T19:27:10.479Z,7.53
2023-05-20T19:29:37.660Z,7.72
2023-05-20T19:32:05.533Z,8.27
2023-05-20T19:34:32.625Z,14.77
2023-05-20T19:36:59.914Z,58.38
2023-05-20T19:39:27.364Z,67.80
2023-05-20T19:41:54.514Z,23.50
2023-05-20T19:44:23.092Z,14.20
2023-05-20T19:46:51.021Z,11.52
2023-05-20T19:49:18.220Z,23.20
2023-05-20T19:51:45.428Z,17.50
2023-05-20T19:54:12.951Z,11.57
2023-05-20T19:56:40.197Z,9.73
2023-05-20T19:59:07.328Z,9.73
2023-05-20T20:01:34.757Z,9.27
2023-05-20T20:04:02.270Z,10.45
2023-05-20T20:06:29.408Z,9.13
2023-05-20T20:08:57.255Z,13.52
2023-05-20T20:11:24.769Z,14.65
2023-05-20T20:13:52.146Z,11.30
2023-05-20T20:16:19.463Z,9.20
2023-05-20T20:18:46.985Z,8.68
2023-05-20T20:21:15.024Z,11.23
2023-05-20T20:23:43.406Z,9.50
2023-05-20T20:26:13.778Z,7.68
2023-05-20T20:28:41.042Z,7.62
2023-05-20T20:31:08.163Z,7.97
2023-05-20T20:33:35.629Z,8.27
2023-05-20T20:36:02.730Z,7.30
2023-05-20T20:38:29.850Z,7.12
2023-05-20T20:40:59.294Z,7.75
2023-05-20T20:43:28.896Z,7.22
2023-05-20T20:45:56.670Z,7.10
2023-05-20T20:48:27.147Z,7.47
2023-05-20T20:50:54.661Z,7.65
2023-05-20T20:53:22.290Z,10.80
2023-05-20T20:55:51.535Z,10.88
2023-05-20T20:58:19.060Z,13.20
2023-05-20T21:00:48.782Z,17.92
2023-05-20T21:03:16.231Z,33.10
2023-05-20T21:05:44.454Z,34.70
2023-05-20T21:08:13.110Z,48.75
2023-05-20T21:10:40.656Z,41.88
2023-05-20T21:13:07.886Z,28.27
2023-05-20T21:15:35.671Z,12.63
2023-05-20T21:18:03.570Z,9.55
2023-05-20T21:20:30.821Z,10.35
2023-05-20T21:22:58.317Z,8.88
2023-05-20T21:25:25.593Z,9.10
2023-05-20T21:27:52.689Z,11.38
2023-05-20T21:30:20.183Z,13.00
2023-05-20T21:32:47.452Z,10.52
2023-05-20T21:35:14.744Z,11.80
2023-05-20T21:37:42.164Z,11.18
2023-05-20T21:40:09.601Z,10.50
2023-05-20T21:42:36.774Z,11.90
2023-05-20T21:45:04.526Z,10.05
2023-05-20T21:47:31.733Z,13.98
2023-05-20T21:49:58.978Z,23.87
2023-05-20T21:52:26.392Z,41.33
2023-05-20T21:54:53.493Z,32.22
2023-05-20T21:57:20.846Z,28.10
2023-05-20T21:59:48.948Z,13.52
2023-05-20T22:02:17.531Z,10.05
2023-05-20T22:04:44.991Z,9.93
2023-05-20T22:07:12.385Z,9.75
2023-05-20T22:09:39.726Z,10.38
2023-05-20T22:12:07.903Z,10.10
2023-05-20T22:14:35.043Z,9.02
2023-05-20T22:17:03.211Z,8.95
2023-05-20T22:19:30.811Z,10.05
2023-05-20T22:21:58.004Z,10.38
2023-05-20T22:24:25.135Z,10.55
2023-05-20T22:26:52.640Z,11.05
2023-05-20T22:29:19.845Z,21.37
2023-05-20T22:31:47.209Z,25.88
2023-05-20T22:34:14.685Z,25.02
2023-05-20T22:36:41.878Z,29.12
2023-05-20T22:39:09.064Z,24.73
2023-05-20T22:41:36.531Z,16.50
2023-05-20T22:44:03.805Z,14.02
2023-05-20T22:46:31.128Z,19.33
2023-05-20T22:48:58.570Z,17.48
2023-05-20T22:51:25.735Z,10.90
2023-05-20T22:53:53.276Z,9.13
2023-05-20T22:56:21.253Z,8.82
2023-05-20T22:58:48.439Z,9.20
2023-05-20T23:01:16.562Z,8.60
2023-05-20T23:03:44.915Z,8.88
2023-05-20T23:06:12.678Z,8.25
2023-05-20T23:08:40.671Z,8.63
2023-05-20T23:11:08.097Z,8.30
2023-05-20T23:13:35.217Z,7.85
2023-05-20T23:16:02.375Z,8.20
2023-05-20T23:18:30.427Z,8.75
2023-05-20T23:20:57.564Z,7.82
2023-05-20T23:23:30.327Z,8.57
2023-05-20T23:25:59.337Z,8.05
2023-05-20T23:28:26.623Z,7.82
2023-05-20T23:30:54.607Z,8.30
2023-05-20T23:33:25.767Z,7.35
2023-05-20T23:35:53.294Z,16.10
2023-05-20T23:38:20.616Z,9.50
2023-05-20T23:40:48.640Z,8.02
2023-05-20T23:43:17.419Z,8.25
2023-05-20T23:45:44.636Z,8.07
2023-05-20T23:48:13.517Z,7.53
2023-05-20T23:50:40.969Z,7.97
2023-05-20T23:53:08.126Z,8.38
2023-05-20T23:55:35.745Z,7.40
2023-05-20T23:58:03.136Z,7.15
